createdAt,value
2022-10-20T00:06:25.710Z,1024.51
2022-10-20T00:21:25.887Z,1024.44
2022-10-20T00:36:26.443Z,1024.32
2022-10-20T00:51:26.590Z,1024.12
2022-10-20T01:06:26.701Z,1024.04
2022-10-20T01:21:27.819Z,1023.91
2022-10-20T01:36:27.442Z,1023.73
2022-10-20T01:51:28.092Z,1023.47
2022-10-20T02:06:29.174Z,1023.33
2022-10-20T02:21:28.801Z,1023.11
2022-10-20T02:36:29.380Z,1023.08
2022-10-20T02:51:29.041Z,1022.90
2022-10-20T03:06:29.647Z,1022.85
2022-10-20T03:21:29.781Z,1022.75
2022-10-20T03:36:30.377Z,1022.57
2022-10-20T03:51:30.516Z,1022.43
2022-10-20T04:06:30.680Z,1022.28
2022-10-20T04:21:31.239Z,1022.37
2022-10-20T04:36:30.868Z,1022.30
2022-10-20T04:51:31.028Z,1022.25
2022-10-20T05:06:31.108Z,1022.06
2022-10-20T05:21:31.306Z,1021.86
2022-10-20T05:36:32.629Z,1021.88
2022-10-20T05:51:32.785Z,1021.87
2022-10-20T06:06:34.112Z,1022.04
2022-10-20T06:21:36.608Z,1022.03
2022-10-20T06:36:37.159Z,1021.92
2022-10-20T06:51:36.804Z,1021.95
2022-10-20T07:06:38.708Z,1021.86
2022-10-20T07:21:41.756Z,1021.84
2022-10-20T07:36:46.204Z,1021.73
2022-10-20T07:51:46.328Z,1021.66
2022-10-20T08:06:46.963Z,1021.55
2022-10-20T08:21:47.547Z,1021.47
2022-10-20T08:36:49.413Z,1021.30
2022-10-20T08:51:50.243Z,1021.28
2022-10-20T09:06:50.366Z,1021.03
2022-10-20T09:21:52.239Z,1020.89
2022-10-20T09:36:52.814Z,1020.63
2022-10-20T10:06:53.034Z,1020.12
2022-10-20T10:21:53.160Z,1020.01
2022-10-20T10:36:53.248Z,1019.70
2022-10-20T10:51:53.482Z,1019.44
2022-10-20T11:06:57.081Z,1019.18
2022-10-20T11:21:59.806Z,1018.99
2022-10-20T11:37:01.428Z,1018.73
2022-10-20T11:52:03.329Z,1018.49
2022-10-20T12:07:04.676Z,1018.28
2022-10-20T12:22:06.018Z,1018.21
2022-10-20T12:37:07.492Z,1018.03
2022-10-20T12:52:09.251Z,1017.93
2022-10-20T13:07:09.388Z,1017.68
2022-10-20T13:22:10.382Z,1017.51
2022-10-20T13:37:10.856Z,1017.26
2022-10-20T13:52:11.718Z,1017.03
2022-10-20T14:07:12.154Z,1016.96
2022-10-20T14:22:13.977Z,1016.94
2022-10-20T14:37:15.829Z,1016.95
2022-10-20T14:52:20.349Z,1016.70
2022-10-20T15:07:21.366Z,1016.38
2022-10-20T15:22:21.425Z,1016.41
2022-10-20T15:37:21.525Z,1016.14
2022-10-20T15:52:22.129Z,1016.02
2022-10-20T16:07:22.743Z,1015.81
2022-10-20T16:22:24.192Z,1015.87
2022-10-20T16:37:24.911Z,1015.97
2022-10-20T16:52:25.128Z,1015.76
2022-10-20T17:07:27.453Z,1015.66
2022-10-20T17:22:28.811Z,1015.31
2022-10-20T17:37:29.708Z,1015.10
2022-10-20T17:52:29.893Z,1014.92
2022-10-20T18:07:31.250Z,1014.99
2022-10-20T18:22:32.610Z,1014.65
2022-10-20T18:37:33.210Z,1014.52
2022-10-20T18:52:33.604Z,1014.61
2022-10-20T19:07:34.989Z,1014.31
2022-10-20T19:22:37.054Z,1014.26
2022-10-20T19:37:37.654Z,1014.23
2022-10-20T19:52:38.630Z,1013.97
2022-10-20T20:07:39.649Z,1013.76
2022-10-20T20:22:41.338Z,1013.69
2022-10-20T20:37:42.204Z,1013.51
2022-10-20T20:52:42.303Z,1013.47
2022-10-20T21:07:42.402Z,1013.50
2022-10-20T21:22:43.037Z,1013.45
2022-10-20T21:37:43.145Z,1013.42
2022-10-20T21:52:43.310Z,1013.28
2022-10-20T22:07:43.891Z,1013.20
2022-10-20T22:22:43.518Z,1013.09
2022-10-20T22:37:43.621Z,1013.10
2022-10-20T22:52:43.798Z,1013.11
2022-10-20T23:07:43.948Z,1013.19
2022-10-20T23:22:44.109Z,1012.92
2022-10-20T23:37:44.701Z,1012.59
2022-10-20T23:52:44.854Z,1012.49
